sensor_id;sensor_type;location;lat;lon;timestamp;P1;durP1;ratioP1;P2;durP2;ratioP2
781;SDS011;374;52.568;13.402;2024-01-30T00:00:31;13.80;;;10.60;;
781;SDS011;374;52.568;13.402;2024-01-30T00:02:57;13.13;;;10.33;;
781;SDS011;374;52.568;13.402;2024-01-30T00:05:22;12.27;;;10.10;;
781;SDS011;374;52.568;13.402;2024-01-30T00:07:48;14.57;;;11.07;;
781;SDS011;374;52.568;13.402;2024-01-30T00:10:13;15.40;;;10.80;;
781;SDS011;374;52.568;13.402;2024-01-30T00:12:39;12.43;;;9.93;;
781;SDS011;374;52.568;13.402;2024-01-30T00:15:04;15.63;;;10.87;;
781;SDS011;374;52.568;13.402;2024-01-30T00:17:33;12.83;;;10.20;;
781;SDS011;374;52.568;13.402;2024-01-30T00:19:58;11.67;;;10.40;;
781;SDS011;374;52.568;13.402;2024-01-30T00:22:24;13.40;;;10.77;;
781;SDS011;374;52.568;13.402;2024-01-30T00:24:49;12.10;;;10.03;;
781;SDS011;374;52.568;13.402;2024-01-30T00:27:14;13.33;;;10.60;;
781;SDS011;374;52.568;13.402;2024-01-30T00:29:41;12.37;;;10.07;;
781;SDS011;374;52.568;13.402;2024-01-30T00:32:06;11.33;;;10.10;;
781;SDS011;374;52.568;13.402;2024-01-30T00:34:32;12.13;;;10.47;;
781;SDS011;374;52.568;13.402;2024-01-30T00:36:57;13.33;;;10.33;;
781;SDS011;374;52.568;13.402;2024-01-30T00:39:23;12.60;;;9.60;;
781;SDS011;374;52.568;13.402;2024-01-30T00:41:48;13.20;;;11.00;;
781;SDS011;374;52.568;13.402;2024-01-30T00:44:14;15.57;;;10.80;;
781;SDS011;374;52.568;13.402;2024-01-30T00:46:39;14.23;;;11.17;;
781;SDS011;374;52.568;13.402;2024-01-30T00:49:05;17.03;;;10.80;;
781;SDS011;374;52.568;13.402;2024-01-30T00:51:30;12.43;;;10.47;;
781;SDS011;374;52.568;13.402;2024-01-30T00:53:56;15.67;;;11.30;;
781;SDS011;374;52.568;13.402;2024-01-30T00:56:21;13.03;;;10.53;;
781;SDS011;374;52.568;13.402;2024-01-30T00:58:48;13.20;;;10.80;;
781;SDS011;374;52.568;13.402;2024-01-30T01:01:13;13.37;;;10.70;;
781;SDS011;374;52.568;13.402;2024-01-30T01:03:39;13.73;;;10.83;;
781;SDS011;374;52.568;13.402;2024-01-30T01:06:05;11.50;;;9.43;;
781;SDS011;374;52.568;13.402;2024-01-30T01:08:31;11.33;;;9.53;;
781;SDS011;374;52.568;13.402;2024-01-30T01:10:56;13.50;;;10.70;;
781;SDS011;374;52.568;13.402;2024-01-30T01:13:22;14.77;;;10.40;;
781;SDS011;374;52.568;13.402;2024-01-30T01:15:47;12.23;;;9.90;;
781;SDS011;374;52.568;13.402;2024-01-30T01:18:13;14.23;;;10.03;;
781;SDS011;374;52.568;13.402;2024-01-30T01:20:38;12.87;;;10.90;;
781;SDS011;374;52.568;13.402;2024-01-30T01:23:04;12.73;;;10.07;;
781;SDS011;374;52.568;13.402;2024-01-30T01:25:29;12.40;;;9.30;;
781;SDS011;374;52.568;13.402;2024-01-30T01:27:55;11.10;;;9.90;;
781;SDS011;374;52.568;13.402;2024-01-30T01:30:20;14.50;;;10.87;;
781;SDS011;374;52.568;13.402;2024-01-30T01:32:50;11.97;;;9.43;;
781;SDS011;374;52.568;13.402;2024-01-30T01:35:23;15.30;;;10.03;;
781;SDS011;374;52.568;13.402;2024-01-30T01:37:52;11.30;;;10.10;;
781;SDS011;374;52.568;13.402;2024-01-30T01:40:26;11.73;;;9.30;;
781;SDS011;374;52.568;13.402;2024-01-30T01:42:53;13.50;;;10.40;;
781;SDS011;374;52.568;13.402;2024-01-30T01:45:19;12.73;;;9.70;;
781;SDS011;374;52.568;13.402;2024-01-30T01:47:45;12.17;;;8.57;;
781;SDS011;374;52.568;13.402;2024-01-30T01:50:13;14.07;;;9.27;;
781;SDS011;374;52.568;13.402;2024-01-30T01:52:43;15.13;;;10.23;;
781;SDS011;374;52.568;13.402;2024-01-30T01:55:11;12.77;;;9.30;;
781;SDS011;374;52.568;13.402;2024-01-30T01:57:38;11.20;;;9.97;;
781;SDS011;374;52.568;13.402;2024-01-30T02:00:04;13.10;;;9.83;;
781;SDS011;374;52.568;13.402;2024-01-30T02:02:31;12.43;;;10.27;;
781;SDS011;374;52.568;13.402;2024-01-30T02:05:00;12.73;;;10.33;;
781;SDS011;374;52.568;13.402;2024-01-30T02:07:26;11.07;;;9.30;;
781;SDS011;374;52.568;13.402;2024-01-30T02:09:52;10.73;;;9.27;;
781;SDS011;374;52.568;13.402;2024-01-30T02:12:18;15.00;;;10.30;;
781;SDS011;374;52.568;13.402;2024-01-30T02:14:50;12.43;;;10.07;;
781;SDS011;374;52.568;13.402;2024-01-30T02:17:15;11.97;;;10.00;;
781;SDS011;374;52.568;13.402;2024-01-30T02:19:41;15.07;;;9.60;;
781;SDS011;374;52.568;13.402;2024-01-30T02:22:07;13.17;;;10.00;;
781;SDS011;374;52.568;13.402;2024-01-30T02:24:33;19.27;;;10.60;;
781;SDS011;374;52.568;13.402;2024-01-30T02:26:59;12.60;;;10.10;;
781;SDS011;374;52.568;13.402;2024-01-30T02:29:24;12.23;;;9.60;;
781;SDS011;374;52.568;13.402;2024-01-30T02:31:50;11.33;;;10.17;;
781;SDS011;374;52.568;13.402;2024-01-30T02:34:15;12.47;;;11.13;;
781;SDS011;374;52.568;13.402;2024-01-30T02:36:44;11.13;;;9.40;;
781;SDS011;374;52.568;13.402;2024-01-30T02:39:10;11.93;;;9.17;;
781;SDS011;374;52.568;13.402;2024-01-30T02:41:36;13.40;;;9.37;;
781;SDS011;374;52.568;13.402;2024-01-30T02:44:02;15.30;;;9.97;;
781;SDS011;374;52.568;13.402;2024-01-30T02:46:28;12.80;;;9.50;;
781;SDS011;374;52.568;13.402;2024-01-30T02:48:54;12.00;;;9.53;;
781;SDS011;374;52.568;13.402;2024-01-30T02:51:20;11.40;;;8.90;;
781;SDS011;374;52.568;13.402;2024-01-30T02:53:45;16.00;;;10.10;;
781;SDS011;374;52.568;13.402;2024-01-30T02:56:10;15.50;;;9.60;;
781;SDS011;374;52.568;13.402;2024-01-30T02:58:38;11.50;;;9.07;;
781;SDS011;374;52.568;13.402;2024-01-30T03:01:04;13.50;;;9.00;;
781;SDS011;374;52.568;13.402;2024-01-30T03:03:30;15.10;;;10.37;;
781;SDS011;374;52.568;13.402;2024-01-30T03:05:59;14.43;;;10.43;;
781;SDS011;374;52.568;13.402;2024-01-30T03:08:24;14.43;;;10.50;;
781;SDS011;374;52.568;13.402;2024-01-30T03:10:50;10.37;;;9.27;;
781;SDS011;374;52.568;13.402;2024-01-30T03:13:15;13.93;;;10.23;;
781;SDS011;374;52.568;13.402;2024-01-30T03:15:41;12.50;;;9.70;;
781;SDS011;374;52.568;13.402;2024-01-30T03:18:06;13.30;;;9.57;;
781;SDS011;374;52.568;13.402;2024-01-30T03:20:32;11.90;;;9.83;;
781;SDS011;374;52.568;13.402;2024-01-30T03:22:59;13.87;;;10.67;;
781;SDS011;374;52.568;13.402;2024-01-30T03:25:25;12.77;;;10.53;;
781;SDS011;374;52.568;13.402;2024-01-30T03:27:50;16.10;;;11.13;;
781;SDS011;374;52.568;13.402;2024-01-30T03:30:16;13.17;;;10.70;;
781;SDS011;374;52.568;13.402;2024-01-30T03:32:42;12.77;;;10.07;;
781;SDS011;374;52.568;13.402;2024-01-30T03:35:07;13.30;;;10.03;;
781;SDS011;374;52.568;13.402;2024-01-30T03:37:33;17.40;;;11.90;;
781;SDS011;374;52.568;13.402;2024-01-30T03:39:59;11.37;;;10.10;;
781;SDS011;374;52.568;13.402;2024-01-30T03:42:24;15.03;;;10.80;;
781;SDS011;374;52.568;13.402;2024-01-30T03:44:50;12.67;;;10.43;;
781;SDS011;374;52.568;13.402;2024-01-30T03:47:19;15.10;;;11.27;;
781;SDS011;374;52.568;13.402;2024-01-30T03:49:45;12.20;;;10.50;;
781;SDS011;374;52.568;13.402;2024-01-30T03:52:11;13.60;;;10.70;;
781;SDS011;374;52.568;13.402;2024-01-30T03:54:36;11.80;;;10.03;;
781;SDS011;374;52.568;13.402;2024-01-30T03:57:02;13.23;;;10.47;;
781;SDS011;374;52.568;13.402;2024-01-30T03:59:27;14.53;;;10.80;;
781;SDS011;374;52.568;13.402;2024-01-30T04:01:53;11.27;;;10.10;;
781;SDS011;374;52.568;13.402;2024-01-30T04:04:19;12.50;;;10.30;;
781;SDS011;374;52.568;13.402;2024-01-30T04:06:44;15.37;;;11.57;;
781;SDS011;374;52.568;13.402;2024-01-30T04:09:10;12.70;;;10.20;;
781;SDS011;374;52.568;13.402;2024-01-30T04:11:38;11.50;;;9.43;;
781;SDS011;374;52.568;13.402;2024-01-30T04:14:03;14.27;;;10.10;;
781;SDS011;374;52.568;13.402;2024-01-30T04:16:29;10.97;;;9.43;;
781;SDS011;374;52.568;13.402;2024-01-30T04:18:54;9.73;;;8.73;;
781;SDS011;374;52.568;13.402;2024-01-30T04:21:21;13.43;;;10.90;;
781;SDS011;374;52.568;13.402;2024-01-30T04:23:47;13.70;;;10.07;;
781;SDS011;374;52.568;13.402;2024-01-30T04:26:13;13.80;;;11.47;;
781;SDS011;374;52.568;13.402;2024-01-30T04:28:40;15.10;;;11.50;;
781;SDS011;374;52.568;13.402;2024-01-30T04:31:06;11.67;;;10.40;;
781;SDS011;374;52.568;13.402;2024-01-30T04:33:32;13.10;;;10.07;;
781;SDS011;374;52.568;13.402;2024-01-30T04:35:57;14.20;;;11.10;;
781;SDS011;374;52.568;13.402;2024-01-30T04:38:23;13.30;;;10.73;;
781;SDS011;374;52.568;13.402;2024-01-30T04:40:48;12.93;;;10.67;;
781;SDS011;374;52.568;13.402;2024-01-30T04:43:14;15.90;;;11.63;;
781;SDS011;374;52.568;13.402;2024-01-30T04:45:40;11.77;;;9.63;;
781;SDS011;374;52.568;13.402;2024-01-30T04:48:06;11.37;;;9.67;;
781;SDS011;374;52.568;13.402;2024-01-30T04:50:32;16.03;;;11.37;;
781;SDS011;374;52.568;13.402;2024-01-30T04:52:57;14.07;;;10.47;;
781;SDS011;374;52.568;13.402;2024-01-30T04:55:23;12.70;;;9.20;;
781;SDS011;374;52.568;13.402;2024-01-30T04:57:51;13.37;;;10.80;;
781;SDS011;374;52.568;13.402;2024-01-30T05:00:17;12.20;;;10.27;;
781;SDS011;374;52.568;13.402;2024-01-30T05:02:42;12.43;;;10.33;;
781;SDS011;374;52.568;13.402;2024-01-30T05:05:08;11.53;;;10.23;;
781;SDS011;374;52.568;13.402;2024-01-30T05:07:33;19.17;;;11.00;;
781;SDS011;374;52.568;13.402;2024-01-30T05:09:59;16.00;;;10.20;;
781;SDS011;374;52.568;13.402;2024-01-30T05:12:25;11.40;;;10.20;;
781;SDS011;374;52.568;13.402;2024-01-30T05:14:51;13.70;;;11.40;;
781;SDS011;374;52.568;13.402;2024-01-30T05:17:16;12.77;;;11.07;;
781;SDS011;374;52.568;13.402;2024-01-30T05:19:42;12.13;;;10.20;;
781;SDS011;374;52.568;13.402;2024-01-30T05:22:08;13.33;;;11.17;;
781;SDS011;374;52.568;13.402;2024-01-30T05:24:34;15.17;;;11.10;;
781;SDS011;374;52.568;13.402;2024-01-30T05:27:00;11.33;;;9.87;;
781;SDS011;374;52.568;13.402;2024-01-30T05:29:25;14.90;;;10.70;;
781;SDS011;374;52.568;13.402;2024-01-30T05:31:52;12.90;;;10.87;;
781;SDS011;374;52.568;13.402;2024-01-30T05:34:17;16.07;;;10.53;;
781;SDS011;374;52.568;13.402;2024-01-30T05:36:43;16.30;;;11.47;;
781;SDS011;374;52.568;13.402;2024-01-30T05:39:08;13.20;;;10.20;;
781;SDS011;374;52.568;13.402;2024-01-30T05:41:34;13.17;;;11.30;;
781;SDS011;374;52.568;13.402;2024-01-30T05:43:59;13.47;;;10.27;;
781;SDS011;374;52.568;13.402;2024-01-30T05:46:25;14.20;;;9.70;;
781;SDS011;374;52.568;13.402;2024-01-30T05:48:50;12.23;;;10.77;;
781;SDS011;374;52.568;13.402;2024-01-30T05:51:15;12.43;;;11.17;;
781;SDS011;374;52.568;13.402;2024-01-30T05:53:41;14.00;;;10.30;;
781;SDS011;374;52.568;13.402;2024-01-30T05:56:06;11.30;;;10.00;;
781;SDS011;374;52.568;13.402;2024-01-30T05:58:32;11.80;;;10.60;;
781;SDS011;374;52.568;13.402;2024-01-30T06:00:58;13.73;;;10.50;;
781;SDS011;374;52.568;13.402;2024-01-30T06:03:23;12.53;;;11.20;;
781;SDS011;374;52.568;13.402;2024-01-30T06:05:49;15.50;;;12.13;;
781;SDS011;374;52.568;13.402;2024-01-30T06:08:14;12.30;;;10.47;;
781;SDS011;374;52.568;13.402;2024-01-30T06:10:40;12.13;;;10.30;;
781;SDS011;374;52.568;13.402;2024-01-30T06:13:05;15.53;;;10.73;;
781;SDS011;374;52.568;13.402;2024-01-30T06:15:31;17.40;;;11.87;;
781;SDS011;374;52.568;13.402;2024-01-30T06:17:58;11.20;;;10.10;;
781;SDS011;374;52.568;13.402;2024-01-30T06:20:26;12.90;;;11.50;;
781;SDS011;374;52.568;13.402;2024-01-30T06:22:52;12.80;;;10.53;;
781;SDS011;374;52.568;13.402;2024-01-30T06:25:17;16.17;;;10.50;;
781;SDS011;374;52.568;13.402;2024-01-30T06:27:43;10.67;;;8.97;;
781;SDS011;374;52.568;13.402;2024-01-30T06:30:09;13.03;;;11.33;;
781;SDS011;374;52.568;13.402;2024-01-30T06:32:35;17.00;;;10.97;;
781;SDS011;374;52.568;13.402;2024-01-30T06:35:01;17.70;;;12.27;;
781;SDS011;374;52.568;13.402;2024-01-30T06:37:27;15.43;;;11.83;;
781;SDS011;374;52.568;13.402;2024-01-30T06:39:52;14.60;;;11.13;;
781;SDS011;374;52.568;13.402;2024-01-30T06:42:18;19.80;;;12.03;;
781;SDS011;374;52.568;13.402;2024-01-30T06:44:44;13.60;;;10.90;;
781;SDS011;374;52.568;13.402;2024-01-30T06:47:10;12.90;;;11.40;;
781;SDS011;374;52.568;13.402;2024-01-30T06:49:36;14.57;;;11.70;;
781;SDS011;374;52.568;13.402;2024-01-30T06:52:07;14.77;;;11.60;;
781;SDS011;374;52.568;13.402;2024-01-30T06:54:32;16.73;;;11.00;;
781;SDS011;374;52.568;13.402;2024-01-30T06:56:58;18.87;;;15.00;;
781;SDS011;374;52.568;13.402;2024-01-30T06:59:24;12.60;;;11.30;;
781;SDS011;374;52.568;13.402;2024-01-30T07:01:49;14.83;;;11.30;;
781;SDS011;374;52.568;13.402;2024-01-30T07:04:15;15.93;;;11.83;;
781;SDS011;374;52.568;13.402;2024-01-30T07:06:41;14.90;;;12.30;;
781;SDS011;374;52.568;13.402;2024-01-30T07:09:07;15.07;;;11.30;;
781;SDS011;374;52.568;13.402;2024-01-30T07:11:33;16.67;;;12.30;;
781;SDS011;374;52.568;13.402;2024-01-30T07:13:58;14.20;;;11.40;;
781;SDS011;374;52.568;13.402;2024-01-30T07:16:24;17.73;;;12.67;;
781;SDS011;374;52.568;13.402;2024-01-30T07:18:49;16.70;;;12.27;;
781;SDS011;374;52.568;13.402;2024-01-30T07:21:15;17.27;;;12.53;;
781;SDS011;374;52.568;13.402;2024-01-30T07:23:41;18.27;;;12.70;;
781;SDS011;374;52.568;13.402;2024-01-30T07:26:07;17.13;;;11.80;;
781;SDS011;374;52.568;13.402;2024-01-30T07:28:33;16.40;;;12.90;;
781;SDS011;374;52.568;13.402;2024-01-30T07:30:59;15.73;;;12.00;;
781;SDS011;374;52.568;13.402;2024-01-30T07:33:25;20.83;;;14.10;;
781;SDS011;374;52.568;13.402;2024-01-30T07:35:54;19.37;;;11.60;;
781;SDS011;374;52.568;13.402;2024-01-30T07:38:19;18.70;;;13.77;;
781;SDS011;374;52.568;13.402;2024-01-30T07:40:45;14.90;;;13.27;;
781;SDS011;374;52.568;13.402;2024-01-30T07:43:11;15.17;;;12.10;;
781;SDS011;374;52.568;13.402;2024-01-30T07:45:37;17.63;;;12.60;;
781;SDS011;374;52.568;13.402;2024-01-30T07:48:03;15.40;;;12.40;;
781;SDS011;374;52.568;13.402;2024-01-30T07:50:32;15.43;;;12.67;;
781;SDS011;374;52.568;13.402;2024-01-30T07:52:58;15.43;;;12.47;;
781;SDS011;374;52.568;13.402;2024-01-30T07:55:25;15.07;;;11.77;;
781;SDS011;374;52.568;13.402;2024-01-30T07:57:53;16.37;;;12.30;;
781;SDS011;374;52.568;13.402;2024-01-30T08:00:20;16.10;;;12.67;;
781;SDS011;374;52.568;13.402;2024-01-30T08:02:46;17.27;;;13.20;;
781;SDS011;374;52.568;13.402;2024-01-30T08:05:11;20.33;;;13.27;;
781;SDS011;374;52.568;13.402;2024-01-30T08:07:37;20.80;;;13.97;;
781;SDS011;374;52.568;13.402;2024-01-30T08:10:02;17.20;;;12.30;;
781;SDS011;374;52.568;13.402;2024-01-30T08:12:28;14.97;;;12.00;;
781;SDS011;374;52.568;13.402;2024-01-30T08:14:54;19.90;;;13.43;;
781;SDS011;374;52.568;13.402;2024-01-30T08:17:19;17.53;;;12.30;;
781;SDS011;374;52.568;13.402;2024-01-30T08:19:45;15.63;;;11.00;;
781;SDS011;374;52.568;13.402;2024-01-30T08:22:11;16.80;;;12.40;;
781;SDS011;374;52.568;13.402;2024-01-30T08:24:38;18.40;;;12.33;;
781;SDS011;374;52.568;13.402;2024-01-30T08:27:05;17.00;;;12.70;;
781;SDS011;374;52.568;13.402;2024-01-30T08:29:31;20.63;;;14.63;;
781;SDS011;374;52.568;13.402;2024-01-30T08:31:59;20.67;;;12.03;;
781;SDS011;374;52.568;13.402;2024-01-30T08:34:25;15.27;;;12.40;;
781;SDS011;374;52.568;13.402;2024-01-30T08:36:50;16.40;;;11.97;;
781;SDS011;374;52.568;13.402;2024-01-30T08:39:16;13.80;;;10.87;;
781;SDS011;374;52.568;13.402;2024-01-30T08:41:41;15.57;;;11.50;;
781;SDS011;374;52.568;13.402;2024-01-30T08:44:07;16.23;;;12.03;;
781;SDS011;374;52.568;13.402;2024-01-30T08:46:32;17.30;;;11.53;;
781;SDS011;374;52.568;13.402;2024-01-30T08:48:58;18.17;;;12.10;;
781;SDS011;374;52.568;13.402;2024-01-30T08:51:24;14.77;;;11.10;;
781;SDS011;374;52.568;13.402;2024-01-30T08:53:49;15.60;;;11.70;;
781;SDS011;374;52.568;13.402;2024-01-30T08:56:15;16.20;;;11.83;;
781;SDS011;374;52.568;13.402;2024-01-30T08:58:41;17.27;;;11.87;;
781;SDS011;374;52.568;13.402;2024-01-30T09:01:07;12.70;;;11.07;;
781;SDS011;374;52.568;13.402;2024-01-30T09:03:32;16.30;;;11.80;;
781;SDS011;374;52.568;13.402;2024-01-30T09:05:58;18.20;;;13.40;;
781;SDS011;374;52.568;13.402;2024-01-30T09:08:23;16.57;;;12.80;;
781;SDS011;374;52.568;13.402;2024-01-30T09:10:49;19.43;;;11.80;;
781;SDS011;374;52.568;13.402;2024-01-30T09:13:15;14.47;;;11.40;;
781;SDS011;374;52.568;13.402;2024-01-30T09:15:41;14.27;;;11.20;;
781;SDS011;374;52.568;13.402;2024-01-30T09:18:07;18.93;;;12.23;;
781;SDS011;374;52.568;13.402;2024-01-30T09:20:32;15.67;;;10.87;;
781;SDS011;374;52.568;13.402;2024-01-30T09:22:58;16.00;;;11.90;;
781;SDS011;374;52.568;13.402;2024-01-30T09:25:24;15.83;;;11.67;;
781;SDS011;374;52.568;13.402;2024-01-30T09:27:49;15.83;;;11.27;;
781;SDS011;374;52.568;13.402;2024-01-30T09:30:15;19.93;;;12.23;;
781;SDS011;374;52.568;13.402;2024-01-30T09:32:40;17.67;;;12.23;;
781;SDS011;374;52.568;13.402;2024-01-30T09:35:07;15.93;;;11.10;;
781;SDS011;374;52.568;13.402;2024-01-30T09:37:33;15.97;;;11.80;;
781;SDS011;374;52.568;13.402;2024-01-30T09:39:58;17.90;;;11.77;;
781;SDS011;374;52.568;13.402;2024-01-30T09:42:26;20.17;;;12.00;;
781;SDS011;374;52.568;13.402;2024-01-30T09:45:01;12.30;;;10.40;;
781;SDS011;374;52.568;13.402;2024-01-30T09:47:28;15.03;;;10.80;;
781;SDS011;374;52.568;13.402;2024-01-30T09:50:09;17.77;;;12.20;;
781;SDS011;374;52.568;13.402;2024-01-30T09:52:35;16.63;;;11.63;;
781;SDS011;374;52.568;13.402;2024-01-30T09:55:02;14.50;;;11.40;;
781;SDS011;374;52.568;13.402;2024-01-30T09:57:28;18.53;;;12.17;;
781;SDS011;374;52.568;13.402;2024-01-30T09:59:53;17.40;;;11.83;;
781;SDS011;374;52.568;13.402;2024-01-30T10:02:19;17.47;;;13.50;;
781;SDS011;374;52.568;13.402;2024-01-30T10:04:48;19.47;;;12.83;;
781;SDS011;374;52.568;13.402;2024-01-30T10:07:15;13.63;;;10.87;;
781;SDS011;374;52.568;13.402;2024-01-30T10:09:41;15.07;;;12.57;;
781;SDS011;374;52.568;13.402;2024-01-30T10:12:06;16.67;;;11.63;;
781;SDS011;374;52.568;13.402;2024-01-30T10:14:33;15.40;;;10.97;;
781;SDS011;374;52.568;13.402;2024-01-30T10:16:59;15.60;;;10.90;;
781;SDS011;374;52.568;13.402;2024-01-30T10:19:25;15.30;;;10.17;;
781;SDS011;374;52.568;13.402;2024-01-30T10:21:51;15.70;;;10.80;;
781;SDS011;374;52.568;13.402;2024-01-30T10:24:18;13.90;;;10.67;;
781;SDS011;374;52.568;13.402;2024-01-30T10:26:43;11.40;;;9.60;;
781;SDS011;374;52.568;13.402;2024-01-30T10:29:09;11.90;;;10.33;;
781;SDS011;374;52.568;13.402;2024-01-30T10:31:35;18.43;;;11.27;;
781;SDS011;374;52.568;13.402;2024-01-30T10:34:00;15.50;;;9.77;;
781;SDS011;374;52.568;13.402;2024-01-30T10:36:29;14.07;;;10.13;;
781;SDS011;374;52.568;13.402;2024-01-30T10:38:58;14.03;;;10.07;;
781;SDS011;374;52.568;13.402;2024-01-30T10:41:26;10.63;;;9.30;;
781;SDS011;374;52.568;13.402;2024-01-30T10:43:57;12.80;;;10.50;;
781;SDS011;374;52.568;13.402;2024-01-30T10:46:31;13.83;;;10.10;;
781;SDS011;374;52.568;13.402;2024-01-30T10:48:59;11.67;;;8.90;;
781;SDS011;374;52.568;13.402;2024-01-30T10:51:26;14.63;;;9.67;;
781;SDS011;374;52.568;13.402;2024-01-30T10:53:52;13.50;;;9.63;;
781;SDS011;374;52.568;13.402;2024-01-30T10:56:20;12.77;;;8.90;;
781;SDS011;374;52.568;13.402;2024-01-30T10:58:47;11.80;;;9.10;;
781;SDS011;374;52.568;13.402;2024-01-30T11:01:14;11.50;;;9.00;;
781;SDS011;374;52.568;13.402;2024-01-30T11:03:41;13.13;;;9.50;;
781;SDS011;374;52.568;13.402;2024-01-30T11:06:10;12.77;;;9.40;;
781;SDS011;374;52.568;13.402;2024-01-30T11:08:36;16.70;;;8.93;;
781;SDS011;374;52.568;13.402;2024-01-30T11:11:02;10.40;;;9.20;;
781;SDS011;374;52.568;13.402;2024-01-30T11:13:33;21.13;;;10.57;;
781;SDS011;374;52.568;13.402;2024-01-30T11:16:06;13.70;;;10.10;;
781;SDS011;374;52.568;13.402;2024-01-30T11:18:32;11.83;;;9.00;;
781;SDS011;374;52.568;13.402;2024-01-30T11:21:00;13.67;;;9.30;;
781;SDS011;374;52.568;13.402;2024-01-30T11:23:27;12.07;;;8.87;;
781;SDS011;374;52.568;13.402;2024-01-30T11:25:53;14.83;;;9.80;;
781;SDS011;374;52.568;13.402;2024-01-30T11:28:20;14.03;;;9.57;;
781;SDS011;374;52.568;13.402;2024-01-30T11:30:46;10.07;;;8.70;;
781;SDS011;374;52.568;13.402;2024-01-30T11:33:16;10.57;;;9.00;;
781;SDS011;374;52.568;13.402;2024-01-30T11:35:58;11.47;;;9.13;;
781;SDS011;374;52.568;13.402;2024-01-30T11:38:25;12.40;;;10.03;;
781;SDS011;374;52.568;13.402;2024-01-30T11:40:53;12.00;;;9.17;;
781;SDS011;374;52.568;13.402;2024-01-30T11:43:24;12.90;;;9.57;;
781;SDS011;374;52.568;13.402;2024-01-30T11:45:50;12.40;;;10.60;;
781;SDS011;374;52.568;13.402;2024-01-30T11:48:16;13.93;;;8.73;;
781;SDS011;374;52.568;13.402;2024-01-30T11:50:42;11.27;;;8.93;;
781;SDS011;374;52.568;13.402;2024-01-30T11:53:11;13.67;;;10.20;;
781;SDS011;374;52.568;13.402;2024-01-30T11:55:37;12.27;;;9.40;;
781;SDS011;374;52.568;13.402;2024-01-30T11:58:03;9.63;;;8.70;;
781;SDS011;374;52.568;13.402;2024-01-30T12:00:29;15.93;;;9.67;;
781;SDS011;374;52.568;13.402;2024-01-30T12:02:56;11.90;;;9.43;;
781;SDS011;374;52.568;13.402;2024-01-30T12:05:22;13.97;;;9.70;;
781;SDS011;374;52.568;13.402;2024-01-30T12:07:48;11.10;;;9.10;;
781;SDS011;374;52.568;13.402;2024-01-30T12:10:14;13.63;;;9.00;;
781;SDS011;374;52.568;13.402;2024-01-30T12:12:46;13.40;;;10.00;;
781;SDS011;374;52.568;13.402;2024-01-30T12:15:14;15.13;;;10.27;;
781;SDS011;374;52.568;13.402;2024-01-30T12:17:40;18.60;;;10.07;;
781;SDS011;374;52.568;13.402;2024-01-30T12:20:07;16.27;;;9.27;;
781;SDS011;374;52.568;13.402;2024-01-30T12:22:36;11.30;;;8.70;;
781;SDS011;374;52.568;13.402;2024-01-30T12:25:04;12.90;;;9.73;;
781;SDS011;374;52.568;13.402;2024-01-30T12:27:33;14.00;;;10.57;;
781;SDS011;374;52.568;13.402;2024-01-30T12:29:58;11.30;;;8.90;;
781;SDS011;374;52.568;13.402;2024-01-30T12:32:24;11.63;;;9.60;;
781;SDS011;374;52.568;13.402;2024-01-30T12:34:50;10.90;;;8.80;;
781;SDS011;374;52.568;13.402;2024-01-30T12:37:18;12.40;;;9.97;;
781;SDS011;374;52.568;13.402;2024-01-30T12:39:49;11.23;;;9.50;;
781;SDS011;374;52.568;13.402;2024-01-30T12:42:16;12.57;;;10.33;;
781;SDS011;374;52.568;13.402;2024-01-30T12:44:42;11.87;;;10.53;;
781;SDS011;374;52.568;13.402;2024-01-30T12:47:08;11.93;;;9.30;;
781;SDS011;374;52.568;13.402;2024-01-30T12:49:34;15.10;;;11.40;;
781;SDS011;374;52.568;13.402;2024-01-30T12:52:00;12.53;;;10.13;;
781;SDS011;374;52.568;13.402;2024-01-30T12:54:25;14.23;;;10.80;;
781;SDS011;374;52.568;13.402;2024-01-30T12:56:51;16.67;;;12.93;;
781;SDS011;374;52.568;13.402;2024-01-30T12:59:17;11.40;;;9.17;;
781;SDS011;374;52.568;13.402;2024-01-30T13:01:42;13.67;;;11.77;;
781;SDS011;374;52.568;13.402;2024-01-30T13:04:08;13.03;;;10.20;;
781;SDS011;374;52.568;13.402;2024-01-30T13:06:34;14.47;;;11.10;;
781;SDS011;374;52.568;13.402;2024-01-30T13:08:59;14.20;;;11.27;;
781;SDS011;374;52.568;13.402;2024-01-30T13:11:25;12.07;;;10.23;;
781;SDS011;374;52.568;13.402;2024-01-30T13:13:50;14.50;;;10.77;;
781;SDS011;374;52.568;13.402;2024-01-30T13:16:16;12.53;;;9.97;;
781;SDS011;374;52.568;13.402;2024-01-30T13:18:44;11.07;;;9.70;;
781;SDS011;374;52.568;13.402;2024-01-30T13:21:16;12.40;;;10.60;;
781;SDS011;374;52.568;13.402;2024-01-30T13:23:42;12.40;;;10.63;;
781;SDS011;374;52.568;13.402;2024-01-30T13:26:08;12.33;;;10.20;;
781;SDS011;374;52.568;13.402;2024-01-30T13:28:33;14.57;;;10.07;;
781;SDS011;374;52.568;13.402;2024-01-30T13:30:59;16.83;;;12.20;;
781;SDS011;374;52.568;13.402;2024-01-30T13:33:24;16.17;;;10.20;;
781;SDS011;374;52.568;13.402;2024-01-30T13:35:51;14.53;;;9.87;;
781;SDS011;374;52.568;13.402;2024-01-30T13:38:16;15.60;;;12.13;;
781;SDS011;374;52.568;13.402;2024-01-30T13:40:42;13.27;;;10.33;;
781;SDS011;374;52.568;13.402;2024-01-30T13:43:07;15.00;;;10.60;;
781;SDS011;374;52.568;13.402;2024-01-30T13:45:33;15.97;;;12.20;;
781;SDS011;374;52.568;13.402;2024-01-30T13:47:58;13.03;;;10.87;;
781;SDS011;374;52.568;13.402;2024-01-30T13:50:24;12.87;;;9.73;;
781;SDS011;374;52.568;13.402;2024-01-30T13:52:49;14.07;;;10.17;;
781;SDS011;374;52.568;13.402;2024-01-30T13:55:15;16.97;;;11.07;;
781;SDS011;374;52.568;13.402;2024-01-30T13:57:43;13.10;;;11.23;;
781;SDS011;374;52.568;13.402;2024-01-30T14:00:09;12.27;;;10.60;;
781;SDS011;374;52.568;13.402;2024-01-30T14:02:35;13.63;;;10.80;;
781;SDS011;374;52.568;13.402;2024-01-30T14:05:00;12.80;;;10.27;;
781;SDS011;374;52.568;13.402;2024-01-30T14:07:26;12.43;;;11.10;;
781;SDS011;374;52.568;13.402;2024-01-30T14:09:51;12.23;;;10.27;;
781;SDS011;374;52.568;13.402;2024-01-30T14:12:17;17.63;;;9.90;;
781;SDS011;374;52.568;13.402;2024-01-30T14:14:42;17.87;;;11.00;;
781;SDS011;374;52.568;13.402;2024-01-30T14:17:08;14.07;;;11.60;;
781;SDS011;374;52.568;13.402;2024-01-30T14:19:34;17.63;;;11.83;;
781;SDS011;374;52.568;13.402;2024-01-30T14:22:00;14.70;;;10.33;;
781;SDS011;374;52.568;13.402;2024-01-30T14:24:26;15.43;;;10.70;;
781;SDS011;374;52.568;13.402;2024-01-30T14:26:52;14.30;;;11.03;;
781;SDS011;374;52.568;13.402;2024-01-30T14:29:17;16.20;;;11.57;;
781;SDS011;374;52.568;13.402;2024-01-30T14:31:43;12.30;;;10.27;;
781;SDS011;374;52.568;13.402;2024-01-30T14:34:08;17.13;;;10.87;;
781;SDS011;374;52.568;13.402;2024-01-30T14:36:35;12.40;;;10.10;;
781;SDS011;374;52.568;13.402;2024-01-30T14:39:01;15.17;;;10.33;;
781;SDS011;374;52.568;13.402;2024-01-30T14:41:28;13.73;;;10.37;;
781;SDS011;374;52.568;13.402;2024-01-30T14:43:54;17.07;;;9.80;;
781;SDS011;374;52.568;13.402;2024-01-30T14:46:20;13.87;;;10.57;;
781;SDS011;374;52.568;13.402;2024-01-30T14:48:46;13.40;;;10.47;;
781;SDS011;374;52.568;13.402;2024-01-30T14:51:12;13.13;;;11.20;;
781;SDS011;374;52.568;13.402;2024-01-30T14:53:38;12.60;;;10.83;;
781;SDS011;374;52.568;13.402;2024-01-30T14:56:04;20.83;;;11.27;;
781;SDS011;374;52.568;13.402;2024-01-30T14:58:30;13.60;;;12.00;;